sensor_id;sensor_type;location;lat;lon;timestamp;pressure;altitude;pressure_sealevel;temperature;humidity
79577;BME280;69045;48.136;11.386;2023-12-20T00:01:22;95290.41;;;11.79;40.12
79577;BME280;69045;48.136;11.386;2023-12-20T00:03:52;95298.50;;;11.77;39.73
79577;BME280;69045;48.136;11.386;2023-12-20T00:06:20;95282.69;;;11.84;39.35
79577;BME280;69045;48.136;11.386;2023-12-20T00:08:48;95274.47;;;11.81;39.16
79577;BME280;69045;48.136;11.386;2023-12-20T00:11:16;95274.47;;;11.81;39.77
79577;BME280;69045;48.136;11.386;2023-12-20T00:13:44;95274.94;;;11.89;39.64
79577;BME280;69045;48.136;11.386;2023-12-20T00:16:16;95268.00;;;11.95;39.17
79577;BME280;69045;48.136;11.386;2023-12-20T00:18:44;95269.47;;;12.02;39.25
79577;BME280;69045;48.136;11.386;2023-12-20T00:21:14;95275.00;;;12.13;39.13
79577;BME280;69045;48.136;11.386;2023-12-20T00:23:42;95261.53;;;12.21;38.35
79577;BME280;69045;48.136;11.386;2023-12-20T00:26:10;95266.88;;;12.14;38.73
79577;BME280;69045;48.136;11.386;2023-12-20T00:28:38;95254.88;;;12.18;38.42
79577;BME280;69045;48.136;11.386;2023-12-20T00:31:05;95254.44;;;12.21;37.58
79577;BME280;69045;48.136;11.386;2023-12-20T00:33:34;95250.91;;;12.27;38.58
79577;BME280;69045;48.136;11.386;2023-12-20T00:36:02;95247.38;;;12.34;37.74
79577;BME280;69045;48.136;11.386;2023-12-20T00:38:32;95247.00;;;12.42;37.66
79577;BME280;69045;48.136;11.386;2023-12-20T00:40:59;95244.03;;;12.50;37.77
79577;BME280;69045;48.136;11.386;2023-12-20T00:43:27;95238.66;;;12.56;37.54
79577;BME280;69045;48.136;11.386;2023-12-20T00:45:55;95241.97;;;12.64;37.28
79577;BME280;69045;48.136;11.386;2023-12-20T00:48:23;95215.69;;;12.64;37.30
79577;BME280;69045;48.136;11.386;2023-12-20T00:50:53;95224.91;;;12.78;37.25
79577;BME280;69045;48.136;11.386;2023-12-20T00:53:21;95221.34;;;12.84;36.41
79577;BME280;69045;48.136;11.386;2023-12-20T00:55:51;95223.28;;;12.89;36.55
79577;BME280;69045;48.136;11.386;2023-12-20T00:58:19;95221.91;;;12.86;36.86
79577;BME280;69045;48.136;11.386;2023-12-20T01:00:47;95220.34;;;12.73;36.75
79577;BME280;69045;48.136;11.386;2023-12-20T01:03:15;95215.25;;;12.67;36.42
79577;BME280;69045;48.136;11.386;2023-12-20T01:05:42;95216.25;;;12.66;37.22
79577;BME280;69045;48.136;11.386;2023-12-20T01:08:10;95221.06;;;12.69;36.75
79577;BME280;69045;48.136;11.386;2023-12-20T01:10:39;95216.91;;;12.73;36.81
79577;BME280;69045;48.136;11.386;2023-12-20T01:13:08;95215.44;;;12.77;37.27
79577;BME280;69045;48.136;11.386;2023-12-20T01:15:36;95218.72;;;12.84;36.77
79577;BME280;69045;48.136;11.386;2023-12-20T01:18:04;95219.06;;;12.88;36.94
79577;BME280;69045;48.136;11.386;2023-12-20T01:20:32;95209.66;;;12.92;37.00
79577;BME280;69045;48.136;11.386;2023-12-20T01:23:00;95209.78;;;12.85;37.20
79577;BME280;69045;48.136;11.386;2023-12-20T01:25:28;95207.66;;;12.82;37.75
79577;BME280;69045;48.136;11.386;2023-12-20T01:27:56;95202.16;;;12.83;37.69
79577;BME280;69045;48.136;11.386;2023-12-20T01:30:26;95200.88;;;12.86;37.39
79577;BME280;69045;48.136;11.386;2023-12-20T01:32:54;95209.91;;;12.90;37.45
79577;BME280;69045;48.136;11.386;2023-12-20T01:35:22;95200.97;;;12.91;37.00
79577;BME280;69045;48.136;11.386;2023-12-20T01:37:50;95199.88;;;12.87;37.32
79577;BME280;69045;48.136;11.386;2023-12-20T01:40:19;95191.16;;;12.87;37.47
79577;BME280;69045;48.136;11.386;2023-12-20T01:42:47;95184.00;;;12.82;37.79
79577;BME280;69045;48.136;11.386;2023-12-20T01:45:15;95195.88;;;12.73;37.71
79577;BME280;69045;48.136;11.386;2023-12-20T01:47:45;95176.38;;;12.69;38.02
79577;BME280;69045;48.136;11.386;2023-12-20T01:50:13;95161.84;;;12.66;38.29
79577;BME280;69045;48.136;11.386;2023-12-20T01:52:43;95159.00;;;12.68;38.08
79577;BME280;69045;48.136;11.386;2023-12-20T01:55:12;95165.97;;;12.74;37.93
79577;BME280;69045;48.136;11.386;2023-12-20T01:57:42;95159.09;;;12.73;38.12
79577;BME280;69045;48.136;11.386;2023-12-20T02:00:12;95153.97;;;12.66;38.00
79577;BME280;69045;48.136;11.386;2023-12-20T02:02:41;95142.66;;;12.66;38.38
79577;BME280;69045;48.136;11.386;2023-12-20T02:05:11;95134.56;;;12.67;37.74
79577;BME280;69045;48.136;11.386;2023-12-20T02:07:40;95131.03;;;12.62;38.57
79577;BME280;69045;48.136;11.386;2023-12-20T02:10:08;95131.97;;;12.55;38.49
79577;BME280;69045;48.136;11.386;2023-12-20T02:12:36;95135.03;;;12.52;38.33
79577;BME280;69045;48.136;11.386;2023-12-20T02:15:05;95143.72;;;12.53;38.74
79577;BME280;69045;48.136;11.386;2023-12-20T02:17:33;95139.59;;;12.57;39.03
79577;BME280;69045;48.136;11.386;2023-12-20T02:20:02;95140.03;;;12.66;39.13
79577;BME280;69045;48.136;11.386;2023-12-20T02:22:31;95136.03;;;12.75;38.76
79577;BME280;69045;48.136;11.386;2023-12-20T02:25:00;95137.66;;;12.93;39.29
79577;BME280;69045;48.136;11.386;2023-12-20T02:27:28;95132.53;;;13.15;38.87
79577;BME280;69045;48.136;11.386;2023-12-20T02:29:57;95130.59;;;13.22;39.00
79577;BME280;69045;48.136;11.386;2023-12-20T02:32:25;95122.09;;;13.20;39.00
79577;BME280;69045;48.136;11.386;2023-12-20T02:34:54;95108.50;;;13.23;39.31
79577;BME280;69045;48.136;11.386;2023-12-20T02:37:23;95108.34;;;13.29;39.31
79577;BME280;69045;48.136;11.386;2023-12-20T02:39:53;95107.22;;;13.25;39.51
79577;BME280;69045;48.136;11.386;2023-12-20T02:42:21;95091.56;;;13.19;39.67
79577;BME280;69045;48.136;11.386;2023-12-20T02:44:49;95101.69;;;13.10;40.18
79577;BME280;69045;48.136;11.386;2023-12-20T02:47:17;95096.09;;;13.06;40.13
79577;BME280;69045;48.136;11.386;2023-12-20T02:49:45;95104.06;;;13.11;40.18
79577;BME280;69045;48.136;11.386;2023-12-20T02:52:13;95106.13;;;13.09;40.16
79577;BME280;69045;48.136;11.386;2023-12-20T02:54:41;95109.22;;;13.06;40.41
79577;BME280;69045;48.136;11.386;2023-12-20T02:57:10;95111.84;;;13.06;40.65
79577;BME280;69045;48.136;11.386;2023-12-20T02:59:38;95114.63;;;13.00;40.45
79577;BME280;69045;48.136;11.386;2023-12-20T03:02:06;95115.44;;;13.00;41.14
79577;BME280;69045;48.136;11.386;2023-12-20T03:04:34;95122.72;;;13.10;41.18
79577;BME280;69045;48.136;11.386;2023-12-20T03:07:02;95109.66;;;13.15;41.41
79577;BME280;69045;48.136;11.386;2023-12-20T03:09:30;95117.84;;;13.19;41.28
79577;BME280;69045;48.136;11.386;2023-12-20T03:12:19;95112.47;;;13.25;41.53
79577;BME280;69045;48.136;11.386;2023-12-20T03:14:48;95117.84;;;13.30;41.51
79577;BME280;69045;48.136;11.386;2023-12-20T03:17:16;95115.09;;;13.25;41.87
79577;BME280;69045;48.136;11.386;2023-12-20T03:19:44;95119.13;;;13.28;41.66
79577;BME280;69045;48.136;11.386;2023-12-20T03:22:11;95123.66;;;13.49;41.99
79577;BME280;69045;48.136;11.386;2023-12-20T03:24:39;95123.91;;;13.64;41.51
79577;BME280;69045;48.136;11.386;2023-12-20T03:27:07;95126.19;;;13.78;41.50
79577;BME280;69045;48.136;11.386;2023-12-20T03:29:37;95128.59;;;13.96;41.08
79577;BME280;69045;48.136;11.386;2023-12-20T03:32:05;95140.72;;;13.97;41.44
79577;BME280;69045;48.136;11.386;2023-12-20T03:34:35;95143.97;;;13.87;41.63
79577;BME280;69045;48.136;11.386;2023-12-20T03:37:03;95152.75;;;13.93;41.86
79577;BME280;69045;48.136;11.386;2023-12-20T03:39:31;95156.63;;;14.07;41.60
79577;BME280;69045;48.136;11.386;2023-12-20T03:41:59;95155.31;;;14.43;41.17
79577;BME280;69045;48.136;11.386;2023-12-20T03:44:27;95155.22;;;14.77;40.59
79577;BME280;69045;48.136;11.386;2023-12-20T03:46:56;95165.63;;;14.67;41.29
79577;BME280;69045;48.136;11.386;2023-12-20T03:49:24;95167.66;;;14.60;41.87
79577;BME280;69045;48.136;11.386;2023-12-20T03:51:52;95167.97;;;14.63;42.00
79577;BME280;69045;48.136;11.386;2023-12-20T03:54:20;95159.91;;;14.75;41.73
79577;BME280;69045;48.136;11.386;2023-12-20T03:56:48;95165.31;;;14.85;42.10
79577;BME280;69045;48.136;11.386;2023-12-20T03:59:18;95173.97;;;14.81;42.08
79577;BME280;69045;48.136;11.386;2023-12-20T04:01:46;95161.31;;;15.05;42.35
79577;BME280;69045;48.136;11.386;2023-12-20T04:04:16;95160.84;;;14.86;42.41
79577;BME280;69045;48.136;11.386;2023-12-20T04:06:43;95160.84;;;14.86;42.53
79577;BME280;69045;48.136;11.386;2023-12-20T04:09:11;95165.16;;;14.97;42.67
79577;BME280;69045;48.136;11.386;2023-12-20T04:11:39;95162.31;;;14.98;43.16
79577;BME280;69045;48.136;11.386;2023-12-20T04:14:07;95158.28;;;15.18;42.96
79577;BME280;69045;48.136;11.386;2023-12-20T04:16:35;95162.72;;;15.12;42.82
79577;BME280;69045;48.136;11.386;2023-12-20T04:19:03;95165.16;;;15.19;42.78
79577;BME280;69045;48.136;11.386;2023-12-20T04:21:33;95153.44;;;15.10;43.09
79577;BME280;69045;48.136;11.386;2023-12-20T04:24:00;95159.06;;;14.91;43.73
79577;BME280;69045;48.136;11.386;2023-12-20T04:26:28;95165.25;;;14.80;44.21
79577;BME280;69045;48.136;11.386;2023-12-20T04:28:57;95159.66;;;14.77;44.25
79577;BME280;69045;48.136;11.386;2023-12-20T04:31:25;95159.50;;;14.61;44.71
79577;BME280;69045;48.136;11.386;2023-12-20T04:33:53;95166.41;;;14.67;45.03
79577;BME280;69045;48.136;11.386;2023-12-20T04:36:21;95168.16;;;14.79;44.57
79577;BME280;69045;48.136;11.386;2023-12-20T04:38:50;95166.75;;;14.71;44.53
79577;BME280;69045;48.136;11.386;2023-12-20T04:41:18;95177.22;;;14.66;44.84
79577;BME280;69045;48.136;11.386;2023-12-20T04:43:46;95180.75;;;14.77;45.22
79577;BME280;69045;48.136;11.386;2023-12-20T04:46:14;95187.59;;;14.72;45.30
79577;BME280;69045;48.136;11.386;2023-12-20T04:48:42;95184.25;;;14.82;44.76
79577;BME280;69045;48.136;11.386;2023-12-20T04:51:10;95195.47;;;14.94;45.26
79577;BME280;69045;48.136;11.386;2023-12-20T04:53:38;95190.56;;;14.81;44.97
79577;BME280;69045;48.136;11.386;2023-12-20T04:56:07;95200.50;;;14.96;45.57
79577;BME280;69045;48.136;11.386;2023-12-20T04:58:35;95200.47;;;14.91;45.61
79577;BME280;69045;48.136;11.386;2023-12-20T05:01:05;95203.66;;;14.93;45.82
79577;BME280;69045;48.136;11.386;2023-12-20T05:03:33;95206.81;;;14.51;47.37
79577;BME280;69045;48.136;11.386;2023-12-20T05:06:01;95205.09;;;14.06;48.36
79577;BME280;69045;48.136;11.386;2023-12-20T05:08:30;95211.78;;;13.80;49.48
79577;BME280;69045;48.136;11.386;2023-12-20T05:10:58;95213.00;;;14.06;48.68
79577;BME280;69045;48.136;11.386;2023-12-20T05:13:27;95203.75;;;13.87;49.59
79577;BME280;69045;48.136;11.386;2023-12-20T05:16:10;95215.31;;;13.86;49.82
79577;BME280;69045;48.136;11.386;2023-12-20T05:18:40;95223.91;;;13.81;49.79
79577;BME280;69045;48.136;11.386;2023-12-20T05:21:09;95218.75;;;13.70;50.35
79577;BME280;69045;48.136;11.386;2023-12-20T05:23:37;95226.78;;;13.80;50.03
79577;BME280;69045;48.136;11.386;2023-12-20T05:26:04;95241.41;;;14.04;49.64
79577;BME280;69045;48.136;11.386;2023-12-20T05:28:34;95229.84;;;14.05;49.30
79577;BME280;69045;48.136;11.386;2023-12-20T05:31:02;95225.88;;;14.03;49.75
79577;BME280;69045;48.136;11.386;2023-12-20T05:33:31;95230.41;;;13.90;49.77
79577;BME280;69045;48.136;11.386;2023-12-20T05:35:59;95246.16;;;13.57;50.47
79577;BME280;69045;48.136;11.386;2023-12-20T05:38:27;95242.75;;;13.28;51.27
79577;BME280;69045;48.136;11.386;2023-12-20T05:40:55;95251.81;;;13.08;51.99
79577;BME280;69045;48.136;11.386;2023-12-20T05:43:23;95249.47;;;12.83;52.22
79577;BME280;69045;48.136;11.386;2023-12-20T05:45:52;95248.81;;;12.53;53.01
79577;BME280;69045;48.136;11.386;2023-12-20T05:48:20;95256.59;;;12.36;53.27
79577;BME280;69045;48.136;11.386;2023-12-20T05:50:48;95253.72;;;12.26;53.64
79577;BME280;69045;48.136;11.386;2023-12-20T05:53:16;95271.53;;;12.12;53.62
79577;BME280;69045;48.136;11.386;2023-12-20T05:55:44;95274.41;;;11.99;54.01
79577;BME280;69045;48.136;11.386;2023-12-20T05:58:12;95280.41;;;11.88;54.43
79577;BME280;69045;48.136;11.386;2023-12-20T06:00:40;95287.50;;;11.87;54.14
79577;BME280;69045;48.136;11.386;2023-12-20T06:03:09;95281.75;;;11.79;55.21
79577;BME280;69045;48.136;11.386;2023-12-20T06:05:37;95297.78;;;11.70;54.28
79577;BME280;69045;48.136;11.386;2023-12-20T06:08:06;95293.00;;;11.67;55.32
79577;BME280;69045;48.136;11.386;2023-12-20T06:10:34;95285.78;;;11.63;55.50
79577;BME280;69045;48.136;11.386;2023-12-20T06:13:02;95290.09;;;11.57;55.24
79577;BME280;69045;48.136;11.386;2023-12-20T06:15:31;95294.78;;;11.55;55.51
79577;BME280;69045;48.136;11.386;2023-12-20T06:17:59;95298.94;;;11.44;56.59
79577;BME280;69045;48.136;11.386;2023-12-20T06:20:28;95299.41;;;11.41;55.96
79577;BME280;69045;48.136;11.386;2023-12-20T06:22:56;95298.94;;;11.44;55.93
79577;BME280;69045;48.136;11.386;2023-12-20T06:25:25;95299.97;;;11.43;56.33
79577;BME280;69045;48.136;11.386;2023-12-20T06:27:53;95308.63;;;11.44;55.70
79577;BME280;69045;48.136;11.386;2023-12-20T06:30:21;95312.97;;;11.38;56.34
79577;BME280;69045;48.136;11.386;2023-12-20T06:32:49;95314.66;;;11.33;56.07
79577;BME280;69045;48.136;11.386;2023-12-20T06:35:17;95320.13;;;11.31;56.02
79577;BME280;69045;48.136;11.386;2023-12-20T06:37:47;95323.16;;;11.28;56.90
79577;BME280;69045;48.136;11.386;2023-12-20T06:40:15;95335.72;;;11.26;56.63
79577;BME280;69045;48.136;11.386;2023-12-20T06:42:45;95338.31;;;11.26;56.41
79577;BME280;69045;48.136;11.386;2023-12-20T06:45:31;95332.47;;;11.24;56.62
79577;BME280;69045;48.136;11.386;2023-12-20T06:47:59;95335.56;;;11.21;56.77
79577;BME280;69045;48.136;11.386;2023-12-20T06:50:27;95327.53;;;11.16;56.50
79577;BME280;69045;48.136;11.386;2023-12-20T06:52:56;95324.50;;;11.19;57.31
79577;BME280;69045;48.136;11.386;2023-12-20T06:55:24;95326.31;;;11.18;57.11
79577;BME280;69045;48.136;11.386;2023-12-20T06:57:52;95336.22;;;11.16;57.03
79577;BME280;69045;48.136;11.386;2023-12-20T07:00:20;95331.91;;;11.04;57.17
79577;BME280;69045;48.136;11.386;2023-12-20T07:02:48;95347.44;;;11.05;57.09
79577;BME280;69045;48.136;11.386;2023-12-20T07:05:17;95354.84;;;11.08;57.01
79577;BME280;69045;48.136;11.386;2023-12-20T07:07:47;95347.56;;;11.10;57.17
79577;BME280;69045;48.136;11.386;2023-12-20T07:10:17;95366.06;;;11.15;56.03
79577;BME280;69045;48.136;11.386;2023-12-20T07:12:45;95364.91;;;11.11;56.68
79577;BME280;69045;48.136;11.386;2023-12-20T07:15:15;95365.13;;;11.10;56.47
79577;BME280;69045;48.136;11.386;2023-12-20T07:17:43;95369.13;;;11.12;57.09
79577;BME280;69045;48.136;11.386;2023-12-20T07:20:12;95369.50;;;11.16;56.05
79577;BME280;69045;48.136;11.386;2023-12-20T07:22:40;95382.59;;;11.16;56.40
79577;BME280;69045;48.136;11.386;2023-12-20T07:25:08;95382.03;;;11.14;57.02
79577;BME280;69045;48.136;11.386;2023-12-20T07:27:38;95375.41;;;11.11;56.77
79577;BME280;69045;48.136;11.386;2023-12-20T07:30:11;95383.28;;;11.11;56.71
79577;BME280;69045;48.136;11.386;2023-12-20T07:32:39;95392.38;;;11.27;56.30
79577;BME280;69045;48.136;11.386;2023-12-20T07:35:07;95380.22;;;11.33;55.72
79577;BME280;69045;48.136;11.386;2023-12-20T07:37:36;95388.72;;;11.10;56.33
79577;BME280;69045;48.136;11.386;2023-12-20T07:40:05;95387.75;;;10.86;56.95
79577;BME280;69045;48.136;11.386;2023-12-20T07:42:33;95395.78;;;10.66;57.97
79577;BME280;69045;48.136;11.386;2023-12-20T07:45:04;95391.72;;;10.45;57.58
79577;BME280;69045;48.136;11.386;2023-12-20T07:47:32;95393.09;;;10.23;59.01
79577;BME280;69045;48.136;11.386;2023-12-20T07:50:00;95396.31;;;10.18;59.13
79577;BME280;69045;48.136;11.386;2023-12-20T07:52:29;95406.44;;;10.08;59.18
79577;BME280;69045;48.136;11.386;2023-12-20T07:54:57;95399.47;;;9.95;59.18
79577;BME280;69045;48.136;11.386;2023-12-20T07:57:28;95397.50;;;9.91;59.62
79577;BME280;69045;48.136;11.386;2023-12-20T07:59:56;95402.69;;;9.97;58.92
79577;BME280;69045;48.136;11.386;2023-12-20T08:02:26;95405.94;;;9.93;60.09
79577;BME280;69045;48.136;11.386;2023-12-20T08:04:54;95416.84;;;9.90;60.61
79577;BME280;69045;48.136;11.386;2023-12-20T08:07:22;95423.22;;;9.94;59.91
79577;BME280;69045;48.136;11.386;2023-12-20T08:09:51;95423.22;;;9.94;59.95
79577;BME280;69045;48.136;11.386;2023-12-20T08:12:19;95419.59;;;9.95;59.78
79577;BME280;69045;48.136;11.386;2023-12-20T08:14:47;95424.63;;;10.03;61.21
79577;BME280;69045;48.136;11.386;2023-12-20T08:17:15;95424.25;;;10.31;60.07
79577;BME280;69045;48.136;11.386;2023-12-20T08:19:47;95430.69;;;10.60;59.36
79577;BME280;69045;48.136;11.386;2023-12-20T08:22:15;95431.00;;;10.95;56.67
79577;BME280;69045;48.136;11.386;2023-12-20T08:24:43;95430.47;;;11.30;56.25
79577;BME280;69045;48.136;11.386;2023-12-20T08:27:11;95427.75;;;11.36;55.32
79577;BME280;69045;48.136;11.386;2023-12-20T08:29:39;95427.16;;;11.16;55.81
79577;BME280;69045;48.136;11.386;2023-12-20T08:32:06;95432.81;;;10.94;57.07
79577;BME280;69045;48.136;11.386;2023-12-20T08:34:34;95421.41;;;11.07;56.29
79577;BME280;69045;48.136;11.386;2023-12-20T08:37:04;95423.28;;;11.00;57.03
79577;BME280;69045;48.136;11.386;2023-12-20T08:39:32;95422.69;;;10.80;57.64
79577;BME280;69045;48.136;11.386;2023-12-20T08:42:00;95424.38;;;10.68;58.26
79577;BME280;69045;48.136;11.386;2023-12-20T08:44:29;95422.78;;;10.66;58.11
79577;BME280;69045;48.136;11.386;2023-12-20T08:46:57;95429.94;;;10.53;57.78
79577;BME280;69045;48.136;11.386;2023-12-20T08:49:26;95431.59;;;10.47;58.81
79577;BME280;69045;48.136;11.386;2023-12-20T08:51:55;95427.59;;;10.45;58.59
79577;BME280;69045;48.136;11.386;2023-12-20T08:54:24;95430.84;;;10.40;59.14
79577;BME280;69045;48.136;11.386;2023-12-20T08:56:52;95428.22;;;10.40;59.29
79577;BME280;69045;48.136;11.386;2023-12-20T08:59:20;95426.94;;;10.49;58.63
79577;BME280;69045;48.136;11.386;2023-12-20T09:01:48;95421.28;;;10.52;58.14
79577;BME280;69045;48.136;11.386;2023-12-20T09:04:21;95425.78;;;10.45;58.59
79577;BME280;69045;48.136;11.386;2023-12-20T09:06:49;95419.50;;;10.46;59.46
79577;BME280;69045;48.136;11.386;2023-12-20T09:09:17;95422.94;;;10.47;59.52
79577;BME280;69045;48.136;11.386;2023-12-20T09:11:46;95424.13;;;10.51;59.32
79577;BME280;69045;48.136;11.386;2023-12-20T09:14:16;95427.31;;;10.53;59.30
79577;BME280;69045;48.136;11.386;2023-12-20T09:16:44;95422.66;;;10.55;58.83
79577;BME280;69045;48.136;11.386;2023-12-20T09:19:12;95423.69;;;10.54;59.59
79577;BME280;69045;48.136;11.386;2023-12-20T09:21:40;95418.44;;;10.54;58.74
79577;BME280;69045;48.136;11.386;2023-12-20T09:24:09;95428.50;;;10.57;58.57
79577;BME280;69045;48.136;11.386;2023-12-20T09:26:37;95425.94;;;10.50;59.21
79577;BME280;69045;48.136;11.386;2023-12-20T09:29:07;95426.56;;;10.46;59.25
79577;BME280;69045;48.136;11.386;2023-12-20T09:31:37;95430.63;;;10.42;59.69
79577;BME280;69045;48.136;11.386;2023-12-20T09:34:05;95425.59;;;10.40;60.04
79577;BME280;69045;48.136;11.386;2023-12-20T09:36:33;95418.00;;;10.32;60.39
79577;BME280;69045;48.136;11.386;2023-12-20T09:39:02;95423.03;;;10.33;59.71
79577;BME280;69045;48.136;11.386;2023-12-20T09:41:32;95434.47;;;10.39;60.12
79577;BME280;69045;48.136;11.386;2023-12-20T09:44:03;95427.81;;;10.43;59.25
79577;BME280;69045;48.136;11.386;2023-12-20T09:46:35;95433.41;;;10.47;60.24
79577;BME280;69045;48.136;11.386;2023-12-20T09:49:05;95431.59;;;10.47;59.39
79577;BME280;69045;48.136;11.386;2023-12-20T09:51:34;95422.13;;;10.46;59.55
79577;BME280;69045;48.136;11.386;2023-12-20T09:54:04;95420.59;;;10.38;59.98
79577;BME280;69045;48.136;11.386;2023-12-20T09:56:33;95418.81;;;10.32;60.06
79577;BME280;69045;48.136;11.386;2023-12-20T09:59:02;95422.22;;;10.33;60.27
79577;BME280;69045;48.136;11.386;2023-12-20T10:01:30;95421.44;;;10.32;60.02
79577;BME280;69045;48.136;11.386;2023-12-20T10:04:00;95417.56;;;10.35;59.61
79577;BME280;69045;48.136;11.386;2023-12-20T10:06:37;95414.75;;;10.36;60.16
79577;BME280;69045;48.136;11.386;2023-12-20T10:09:05;95409.66;;;10.42;60.42
79577;BME280;69045;48.136;11.386;2023-12-20T10:11:34;95404.59;;;10.47;60.71
79577;BME280;69045;48.136;11.386;2023-12-20T10:14:04;95400.56;;;10.51;60.40
79577;BME280;69045;48.136;11.386;2023-12-20T10:16:33;95399.03;;;10.61;60.54
79577;BME280;69045;48.136;11.386;2023-12-20T10:19:03;95404.00;;;10.70;60.80
79577;BME280;69045;48.136;11.386;2023-12-20T10:21:31;95403.38;;;10.74;60.37
79577;BME280;69045;48.136;11.386;2023-12-20T10:24:00;95399.72;;;10.75;59.91
79577;BME280;69045;48.136;11.386;2023-12-20T10:26:28;95406.38;;;10.78;59.79
79577;BME280;69045;48.136;11.386;2023-12-20T10:29:00;95397.50;;;10.79;59.97
79577;BME280;69045;48.136;11.386;2023-12-20T10:31:31;95403.81;;;10.71;61.02
79577;BME280;69045;48.136;11.386;2023-12-20T10:34:01;95398.03;;;10.62;61.23
79577;BME280;69045;48.136;11.386;2023-12-20T10:36:32;95397.56;;;10.72;59.85
79577;BME280;69045;48.136;11.386;2023-12-20T10:39:02;95392.53;;;10.71;61.03
79577;BME280;69045;48.136;11.386;2023-12-20T10:41:31;95391.66;;;10.77;60.24
79577;BME280;69045;48.136;11.386;2023-12-20T10:44:01;95391.47;;;10.78;59.33
79577;BME280;69045;48.136;11.386;2023-12-20T10:46:30;95393.63;;;10.81;59.58
79577;BME280;69045;48.136;11.386;2023-12-20T10:49:02;95392.66;;;10.76;61.02
79577;BME280;69045;48.136;11.386;2023-12-20T10:51:34;95386.84;;;10.74;60.85
79577;BME280;69045;48.136;11.386;2023-12-20T10:54:03;95397.44;;;10.85;60.86
79577;BME280;69045;48.136;11.386;2023-12-20T10:56:32;95391.16;;;10.86;60.42
79577;BME280;69045;48.136;11.386;2023-12-20T10:59:02;95381.66;;;10.92;60.79
79577;BME280;69045;48.136;11.386;2023-12-20T11:01:33;95374.88;;;11.03;59.93
79577;BME280;69045;48.136;11.386;2023-12-20T11:04:08;95378.81;;;11.12;59.59
79577;BME280;69045;48.136;11.386;2023-12-20T11:06:45;95371.97;;;11.29;58.53
79577;BME280;69045;48.136;11.386;2023-12-20T11:09:22;95376.25;;;11.42;57.71
79577;BME280;69045;48.136;11.386;2023-12-20T11:12:07;95370.19;;;11.60;57.82
79577;BME280;69045;48.136;11.386;2023-12-20T11:14:45;95372.75;;;11.48;58.44
79577;BME280;69045;48.136;11.386;2023-12-20T11:17:14;95375.13;;;11.68;57.71
79577;BME280;69045;48.136;11.386;2023-12-20T11:20:04;95370.31;;;11.65;57.59
79577;BME280;69045;48.136;11.386;2023-12-20T11:22:34;95354.47;;;11.60;57.32
79577;BME280;69045;48.136;11.386;2023-12-20T11:25:09;95364.50;;;11.44;58.73
79577;BME280;69045;48.136;11.386;2023-12-20T11:27:41;95358.50;;;11.26;58.98
79577;BME280;69045;48.136;11.386;2023-12-20T11:30:11;95354.00;;;11.33;58.93
79577;BME280;69045;48.136;11.386;2023-12-20T11:32:40;95360.03;;;11.33;58.80
79577;BME280;69045;48.136;11.386;2023-12-20T11:35:18;95356.53;;;11.39;58.66
79577;BME280;69045;48.136;11.386;2023-12-20T11:37:48;95352.88;;;11.40;58.49
79577;BME280;69045;48.136;11.386;2023-12-20T11:40:18;95340.00;;;11.39;58.20
79577;BME280;69045;48.136;11.386;2023-12-20T11:42:49;95344.00;;;11.41;57.99
79577;BME280;69045;48.136;11.386;2023-12-20T11:45:19;95340.13;;;11.44;57.82
79577;BME280;69045;48.136;11.386;2023-12-20T11:47:50;95333.88;;;11.45;57.96
79577;BME280;69045;48.136;11.386;2023-12-20T11:50:20;95339.47;;;11.48;58.01
79577;BME280;69045;48.136;11.386;2023-12-20T11:52:51;95336.19;;;11.53;57.83
79577;BME280;69045;48.136;11.386;2023-12-20T11:55:20;95339.28;;;11.62;57.67
79577;BME280;69045;48.136;11.386;2023-12-20T11:57:47;95332.13;;;11.69;56.81
79577;BME280;69045;48.136;11.386;2023-12-20T12:00:17;95325.28;;;11.68;56.69
79577;BME280;69045;48.136;11.386;2023-12-20T12:02:55;95320.25;;;11.66;57.49
79577;BME280;69045;48.136;11.386;2023-12-20T12:05:23;95312.16;;;11.68;56.73
79577;BME280;69045;48.136;11.386;2023-12-20T12:07:53;95317.66;;;11.78;56.72
79577;BME280;69045;48.136;11.386;2023-12-20T12:10:22;95331.97;;;11.82;56.48
79577;BME280;69045;48.136;11.386;2023-12-20T12:12:50;95320.88;;;11.80;55.65
79577;BME280;69045;48.136;11.386;2023-12-20T12:15:18;95321.53;;;11.75;55.62
79577;BME280;69045;48.136;11.386;2023-12-20T12:17:53;95312.31;;;11.73;55.26
79577;BME280;69045;48.136;11.386;2023-12-20T12:20:22;95314.94;;;11.73;55.97
79577;BME280;69045;48.136;11.386;2023-12-20T12:22:58;95315.50;;;11.75;56.05
79577;BME280;69045;48.136;11.386;2023-12-20T12:25:28;95319.47;;;11.77;55.95
79577;BME280;69045;48.136;11.386;2023-12-20T12:27:58;95312.50;;;11.71;56.17
79577;BME280;69045;48.136;11.386;2023-12-20T12:30:26;95309.78;;;11.66;56.13
79577;BME280;69045;48.136;11.386;2023-12-20T12:33:04;95311.78;;;11.53;56.48
79577;BME280;69045;48.136;11.386;2023-12-20T12:35:32;95309.97;;;11.35;56.77
79577;BME280;69045;48.136;11.386;2023-12-20T12:38:03;95300.81;;;11.26;58.34
79577;BME280;69045;48.136;11.386;2023-12-20T12:40:34;95306.16;;;11.19;58.19
79577;BME280;69045;48.136;11.386;2023-12-20T12:43:03;95295.66;;;11.19;57.66
79577;BME280;69045;48.136;11.386;2023-12-20T12:45:31;95294.19;;;11.23;58.32
79577;BME280;69045;48.136;11.386;2023-12-20T12:47:59;95293.31;;;11.29;58.00
79577;BME280;69045;48.136;11.386;2023-12-20T12:50:27;95297.09;;;11.33;58.08
79577;BME280;69045;48.136;11.386;2023-12-20T12:52:56;95299.84;;;11.38;58.10
79577;BME280;69045;48.136;11.386;2023-12-20T12:55:25;95301.09;;;11.36;57.78
79577;BME280;69045;48.136;11.386;2023-12-20T12:57:53;95307.81;;;11.32;57.42
79577;BME280;69045;48.136;11.386;2023-12-20T13:00:22;95308.81;;;11.31;57.99